Time;durP1;ratioP1;P1;durP2;ratioP2;P2;SDS_P1;SDS_P2;PMS_P1;PMS_P2;Temp;Humidity;BMP_temperature;BMP_pressure;BME280_temperature;BME280_humidity;BME280_pressure;Samples;Min_cycle;Max_cycle;Signal;HPM_P1;HPM_P2
2023/06/03 00:00:13;;;;;;;3.90;3.67;;;;;;;17.65;88.05;94748.69;5008415;28;20207;-60
2023/06/03 00:02:41;;;;;;;4.15;3.33;;;;;;;17.58;87.13;94749.97;5009628;28;20194;-60
2023/06/03 00:05:09;;;;;;;3.22;3.03;;;;;;;17.64;86.05;94749.59;5007558;28;20293;-60
2023/06/03 00:07:35;;;;;;;5.05;3.53;;;;;;;17.72;84.87;94740.56;5007595;28;20254;-59
2023/06/03 00:10:03;;;;;;;3.65;3.45;;;;;;;17.75;85.33;94735.25;5009334;28;20210;-62
2023/06/03 00:12:29;;;;;;;3.80;3.60;;;;;;;17.64;86.21;94739.34;5008270;28;20233;-60
2023/06/03 00:14:56;;;;;;;3.83;3.58;;;;;;;17.68;85.78;94739.94;5006363;28;21751;-60
2023/06/03 00:17:26;;;;;;;5.18;3.35;;;;;;;17.60;86.42;94745.56;5006922;28;20295;-60
2023/06/03 00:19:54;;;;;;;4.38;2.90;;;;;;;17.46;87.68;94739.69;5004796;28;20239;-60
2023/06/03 00:22:22;;;;;;;3.97;3.78;;;;;;;17.40;87.98;94740.91;5006655;28;20296;-60
2023/06/03 00:24:49;;;;;;;3.70;3.47;;;;;;;17.42;87.97;94733.09;5007271;28;20900;-60
2023/06/03 00:27:15;;;;;;;3.60;3.30;;;;;;;17.35;88.59;94733.50;5007248;28;20298;-60
2023/06/03 00:29:42;;;;;;;3.80;3.60;;;;;;;17.32;88.75;94730.34;5007328;28;20230;-60
2023/06/03 00:32:09;;;;;;;3.70;3.50;;;;;;;17.30;89.25;94721.91;5007674;28;20289;-60
2023/06/03 00:34:35;;;;;;;3.65;3.38;;;;;;;17.23;90.00;94723.22;5008223;28;20211;-59
2023/06/03 00:37:04;;;;;;;3.35;3.05;;;;;;;17.21;89.35;94730.19;5005481;28;20235;-63
2023/06/03 00:39:30;;;;;;;3.67;3.47;;;;;;;17.19;88.74;94721.75;5007111;28;20211;-59
2023/06/03 00:41:58;;;;;;;3.90;3.60;;;;;;;17.16;88.93;94732.22;5005462;28;20314;-59
2023/06/03 00:44:24;;;;;;;3.58;3.30;;;;;;;17.03;89.78;94726.25;5008037;28;20288;-59
2023/06/03 00:46:52;;;;;;;7.35;4.43;;;;;;;17.03;90.06;94731.38;5006647;28;20660;-58
2023/06/03 00:49:19;;;;;;;4.38;3.33;;;;;;;17.12;90.60;94729.03;5006864;28;20261;-61
2023/06/03 00:51:46;;;;;;;6.03;3.63;;;;;;;17.13;90.45;94730.69;5005665;28;20740;-61
2023/06/03 00:54:15;;;;;;;7.32;4.28;;;;;;;17.22;89.89;94731.84;5006310;28;21016;-60
2023/06/03 00:56:44;;;;;;;4.25;3.95;;;;;;;17.13;90.72;94719.59;5006393;28;20294;-60
2023/06/03 00:59:14;;;;;;;3.60;3.30;;;;;;;17.10;90.01;94723.16;5007336;28;20228;-60
2023/06/03 01:01:42;;;;;;;3.70;3.25;;;;;;;17.04;89.42;94721.03;5005567;28;20211;-60
2023/06/03 01:04:09;;;;;;;3.72;3.50;;;;;;;16.99;89.66;94716.19;5006252;28;20202;-59
2023/06/03 01:06:55;;;;;;;4.05;3.85;;;;;;;16.90;90.21;94714.19;5007238;28;20328;-58
2023/06/03 01:09:30;;;;;;;4.50;4.05;;;;;;;16.83;90.83;94712.91;5006857;28;21689;-60
2023/06/03 01:12:05;;;;;;;4.15;3.85;;;;;;;16.80;91.44;94709.75;5004522;28;22824;-61
2023/06/03 01:14:40;;;;;;;4.03;3.67;;;;;;;16.73;91.85;94704.19;5008263;28;21731;-60
2023/06/03 01:17:09;;;;;;;5.13;4.40;;;;;;;16.65;92.63;94704.66;5007789;28;20215;-58
2023/06/03 01:19:40;;;;;;;4.28;4.05;;;;;;;16.61;93.26;94710.84;5005177;28;20202;-60
2023/06/03 01:22:12;;;;;;;5.30;3.95;;;;;;;16.45;93.57;94699.09;5004798;28;20203;-59
2023/06/03 01:24:40;;;;;;;4.00;3.80;;;;;;;16.58;93.72;94713.59;5005724;28;20199;-59
2023/06/03 01:27:10;;;;;;;4.05;3.75;;;;;;;16.54;93.72;94703.66;5006305;28;20376;-58
2023/06/03 01:29:36;;;;;;;4.47;4.07;;;;;;;16.52;94.29;94710.63;5004798;28;20222;-61
2023/06/03 01:32:05;;;;;;;4.18;3.88;;;;;;;16.52;94.30;94715.75;5004056;28;20313;-61
2023/06/03 01:34:33;;;;;;;4.40;4.10;;;;;;;16.53;94.47;94712.28;5005811;28;20202;-59
2023/06/03 01:37:00;;;;;;;4.13;3.80;;;;;;;16.52;94.67;94706.31;5007139;28;20227;-60
2023/06/03 01:39:27;;;;;;;3.90;3.67;;;;;;;16.60;93.52;94719.47;5006805;28;20625;-60
2023/06/03 01:41:56;;;;;;;4.13;3.92;;;;;;;16.56;93.54;94710.34;5006241;28;20811;-58
2023/06/03 01:44:23;;;;;;;4.68;4.03;;;;;;;16.54;93.39;94717.31;5006974;28;20261;-58
2023/06/03 01:46:49;;;;;;;4.60;4.30;;;;;;;16.51;94.05;94716.66;5005932;28;20803;-61
2023/06/03 01:49:17;;;;;;;4.35;4.15;;;;;;;16.46;94.41;94716.13;5006545;28;22745;-59
2023/06/03 01:51:44;;;;;;;5.32;4.40;;;;;;;16.46;94.19;94711.00;5005055;28;20369;-59
2023/06/03 01:54:11;;;;;;;6.63;4.65;;;;;;;16.47;94.40;94712.66;5006168;28;20233;-60
2023/06/03 01:56:37;;;;;;;5.00;4.57;;;;;;;16.37;94.42;94709.00;5007538;28;20206;-61
2023/06/03 01:59:06;;;;;;;4.65;3.80;;;;;;;16.36;94.59;94709.91;5005654;28;20234;-60
2023/06/03 02:01:33;;;;;;;4.32;4.03;;;;;;;16.34;94.86;94712.56;5005823;28;20211;-60
2023/06/03 02:04:00;;;;;;;5.43;4.20;;;;;;;16.37;94.77;94717.50;5007693;28;20286;-60
2023/06/03 02:06:26;;;;;;;5.28;4.28;;;;;;;16.38;94.65;94715.78;5006896;28;20337;-61
2023/06/03 02:08:53;;;;;;;3.90;3.60;;;;;;;16.37;94.60;94720.06;5006374;28;22173;-59
2023/06/03 02:11:20;;;;;;;5.55;4.03;;;;;;;16.30;95.19;94722.22;5005346;28;20284;-60
2023/06/03 02:13:46;;;;;;;6.72;4.30;;;;;;;16.51;93.15;94729.50;5007282;28;20413;-61
2023/06/03 02:16:14;;;;;;;4.00;3.70;;;;;;;16.41;94.33;94724.09;5005605;28;20203;-59
2023/06/03 02:18:42;;;;;;;6.28;4.40;;;;;;;16.47;94.36;94730.59;5006063;28;20764;-60
2023/06/03 02:21:09;;;;;;;4.38;4.18;;;;;;;16.42;94.29;94718.06;5004646;28;21466;-59
2023/06/03 02:23:36;;;;;;;4.32;4.03;;;;;;;16.29;94.75;94712.03;5006057;28;20251;-60
2023/06/03 02:26:03;;;;;;;4.13;3.85;;;;;;;16.38;94.83;94723.47;5006845;28;20231;-59
2023/06/03 02:28:30;;;;;;;4.68;4.38;;;;;;;16.42;94.61;94730.06;5006323;28;20207;-60
2023/06/03 02:30:57;;;;;;;9.57;8.65;;;;;;;16.50;93.73;94731.25;5004886;28;20214;-60
2023/06/03 02:33:25;;;;;;;9.43;6.47;;;;;;;16.69;92.36;94737.81;5007732;28;20285;-58
2023/06/03 02:35:52;;;;;;;5.78;5.38;;;;;;;16.70;92.74;94735.16;5008020;28;20206;-59
2023/06/03 02:38:18;;;;;;;4.60;4.20;;;;;;;16.77;91.50;94738.16;5007509;28;22348;-59
2023/06/03 02:40:45;;;;;;;4.57;4.28;;;;;;;16.80;91.65;94743.94;5008172;28;20712;-59
2023/06/03 02:43:13;;;;;;;4.47;4.25;;;;;;;16.80;91.40;94743.94;5011990;28;20219;-58
2023/06/03 02:45:40;;;;;;;4.65;4.28;;;;;;;16.81;91.53;94745.59;5010065;28;20673;-59
2023/06/03 02:48:06;;;;;;;4.32;4.03;;;;;;;16.78;91.83;94742.38;5012413;28;20219;-59
2023/06/03 02:50:35;;;;;;;4.75;4.35;;;;;;;16.67;92.88;94745.59;5010715;28;20322;-59
2023/06/03 02:53:01;;;;;;;4.78;4.47;;;;;;;16.90;91.29;94747.56;5008981;28;20317;-58
2023/06/03 02:55:28;;;;;;;4.85;4.30;;;;;;;16.85;91.86;94757.28;5011372;28;20634;-59
2023/06/03 02:57:55;;;;;;;4.95;4.55;;;;;;;16.81;92.54;94753.28;5012418;28;20202;-59
2023/06/03 03:00:21;;;;;;;5.22;4.75;;;;;;;16.87;92.48;94757.19;5011162;28;20203;-58
2023/06/03 03:02:48;;;;;;;6.45;5.35;;;;;;;17.02;91.11;94763.13;5011042;28;20752;-60
2023/06/03 03:05:16;;;;;;;6.35;4.95;;;;;;;16.95;91.39;94766.06;5010145;28;20326;-58
2023/06/03 03:07:44;;;;;;;7.82;5.10;;;;;;;16.94;91.77;94766.97;5010831;28;20328;-58
2023/06/03 03:10:11;;;;;;;5.47;4.97;;;;;;;16.98;91.51;94775.31;5010351;28;20286;-59
2023/06/03 03:12:38;;;;;;;6.18;5.53;;;;;;;16.97;91.47;94774.50;5009340;28;20207;-59
2023/06/03 03:15:05;;;;;;;5.43;5.00;;;;;;;16.99;91.52;94775.22;5009346;28;20206;-59
2023/06/03 03:17:32;;;;;;;7.45;4.60;;;;;;;17.00;91.75;94778.59;5008288;28;20207;-60
2023/06/03 03:19:59;;;;;;;5.90;5.10;;;;;;;17.03;90.98;94778.41;5007530;28;20215;-59
2023/06/03 03:22:27;;;;;;;6.03;5.28;;;;;;;16.94;91.88;94776.41;5006697;28;20268;-59
2023/06/03 03:24:56;;;;;;;4.93;4.53;;;;;;;16.87;93.10;94785.41;5008377;28;20238;-59
2023/06/03 03:27:23;;;;;;;5.13;4.72;;;;;;;16.85;93.97;94787.25;5008886;28;20228;-59
2023/06/03 03:29:52;;;;;;;10.40;5.03;;;;;;;16.93;91.89;94788.44;5007948;28;20376;-59
2023/06/03 03:32:19;;;;;;;4.68;4.38;;;;;;;16.88;92.78;94793.03;5006444;28;20219;-60
2023/06/03 03:34:49;;;;;;;7.95;5.38;;;;;;;16.98;92.19;94786.41;5008256;28;20629;-58
2023/06/03 03:37:16;;;;;;;5.03;4.50;;;;;;;17.13;90.33;94799.19;5007920;28;20254;-63
2023/06/03 03:39:42;;;;;;;5.68;5.18;;;;;;;17.16;90.63;94788.72;5007221;28;20298;-60
2023/06/03 03:42:11;;;;;;;5.40;4.63;;;;;;;17.16;90.83;94799.00;5007897;28;20297;-59
2023/06/03 03:44:37;;;;;;;10.57;4.65;;;;;;;17.18;90.87;94797.16;5005810;28;20298;-59
2023/06/03 03:47:04;;;;;;;5.75;5.03;;;;;;;17.17;91.33;94795.50;5008132;28;20372;-59
2023/06/03 03:49:35;;;;;;;5.30;4.90;;;;;;;17.19;91.45;94798.81;5008355;28;20231;-62
2023/06/03 03:52:05;;;;;;;4.43;4.10;;;;;;;17.30;90.94;94799.78;5004610;28;20314;-58
2023/06/03 03:54:34;;;;;;;5.32;4.85;;;;;;;17.30;90.05;94806.66;5008432;28;20284;-58
2023/06/03 03:57:13;;;;;;;8.73;4.93;;;;;;;17.24;90.49;94796.78;5007880;28;20290;-60
2023/06/03 03:59:41;;;;;;;5.60;5.07;;;;;;;17.27;89.33;94801.72;5009017;28;20215;-59
2023/06/03 04:02:07;;;;;;;6.40;5.10;;;;;;;17.27;89.46;94806.84;5007980;28;20596;-59
2023/06/03 04:04:42;;;;;;;9.63;5.40;;;;;;;17.34;90.04;94808.91;5007994;28;20297;-58
2023/06/03 04:07:11;;;;;;;6.18;5.07;;;;;;;17.47;88.26;94816.66;5009841;28;20230;-59
2023/06/03 04:09:39;;;;;;;9.07;5.40;;;;;;;17.56;87.18;94813.50;5009494;28;20301;-57
2023/06/03 04:12:19;;;;;;;6.45;5.80;;;;;;;17.59;87.94;94813.28;5007884;28;20207;-58
2023/06/03 04:14:48;;;;;;;8.27;5.47;;;;;;;17.56;88.29;94813.50;5008761;28;20246;-58
2023/06/03 04:17:21;;;;;;;8.20;5.80;;;;;;;17.53;88.77;94803.44;5009074;28;20715;-59
2023/06/03 04:19:48;;;;;;;11.85;6.57;;;;;;;17.59;88.06;94815.84;5009101;28;20730;-58
2023/06/03 04:22:20;;;;;;;11.82;6.22;;;;;;;17.60;88.42;94809.78;5008081;28;20337;-58
2023/06/03 04:24:55;;;;;;;10.43;6.40;;;;;;;17.77;87.73;94810.50;5006570;28;20633;-58
2023/06/03 04:27:24;;;;;;;9.70;6.03;;;;;;;17.70;88.76;94815.22;5008106;28;20222;-58
2023/06/03 04:29:50;;;;;;;8.00;5.82;;;;;;;17.83;88.19;94815.22;5007683;28;20199;-58
2023/06/03 04:32:17;;;;;;;6.45;5.55;;;;;;;17.88;87.79;94813.16;5005735;28;20306;-59
2023/06/03 04:34:52;;;;;;;7.22;6.22;;;;;;;17.98;88.46;94815.03;5007787;28;20660;-59
2023/06/03 04:37:19;;;;;;;6.85;6.25;;;;;;;18.23;85.47;94810.81;5007702;28;20238;-58
2023/06/03 04:39:46;;;;;;;7.05;6.35;;;;;;;18.32;85.36;94815.34;5008431;28;20266;-57
2023/06/03 04:42:13;;;;;;;11.70;7.50;;;;;;;18.40;85.43;94809.69;5006854;28;20268;-58
2023/06/03 04:44:41;;;;;;;6.95;5.95;;;;;;;18.54;84.53;94812.16;5008825;28;20203;-59
2023/06/03 04:47:10;;;;;;;7.78;6.20;;;;;;;18.71;83.15;94814.41;5006265;28;20322;-60
2023/06/03 04:49:37;;;;;;;10.68;6.30;;;;;;;18.83;83.93;94813.53;5008397;28;20280;-59
2023/06/03 04:52:05;;;;;;;8.60;6.60;;;;;;;19.08;83.16;94815.22;5005750;28;22410;-59
2023/06/03 04:54:32;;;;;;;10.18;6.15;;;;;;;19.27;81.90;94819.91;5006442;28;20199;-59
2023/06/03 04:56:58;;;;;;;10.77;7.45;;;;;;;19.51;80.30;94817.34;5008467;28;20203;-58
2023/06/03 04:59:25;;;;;;;6.95;6.10;;;;;;;19.80;78.61;94820.34;5007894;28;20268;-59
2023/06/03 05:01:53;;;;;;;6.95;5.97;;;;;;;19.98;78.12;94824.19;5006478;28;20672;-58
2023/06/03 05:04:20;;;;;;;6.72;5.50;;;;;;;20.33;76.35;94832.66;5005719;28;20306;-59
2023/06/03 05:06:46;;;;;;;6.15;5.57;;;;;;;20.71;75.42;94826.38;5007643;28;20234;-59
2023/06/03 05:09:13;;;;;;;9.25;6.47;;;;;;;21.13;73.42;94836.91;5008093;28;20231;-59
2023/06/03 05:11:40;;;;;;;8.00;5.80;;;;;;;21.45;71.88;94840.38;5007125;28;20212;-60
2023/06/03 05:14:07;;;;;;;9.13;5.32;;;;;;;21.72;70.26;94835.59;5006961;28;20344;-60
2023/06/03 05:16:34;;;;;;;7.57;6.10;;;;;;;21.89;68.89;94839.38;5006671;28;22982;-59
2023/06/03 05:19:02;;;;;;;7.05;4.97;;;;;;;21.88;69.45;94836.91;5007723;28;20249;-59
2023/06/03 05:21:29;;;;;;;5.80;5.20;;;;;;;22.06;68.26;94836.25;5006554;28;20285;-59
2023/06/03 05:23:55;;;;;;;5.90;4.88;;;;;;;22.31;67.56;94836.81;5004047;28;20293;-59
2023/06/03 05:26:22;;;;;;;5.88;5.07;;;;;;;22.26;67.98;94831.22;5004565;28;20265;-60
2023/06/03 05:28:49;;;;;;;5.80;5.38;;;;;;;22.27;67.85;94833.66;5007339;28;20207;-61
2023/06/03 05:31:16;;;;;;;9.45;6.45;;;;;;;22.39;68.60;94840.41;5005362;28;20290;-60
2023/06/03 05:33:42;;;;;;;15.90;14.20;;;;;;;22.87;67.10;94847.59;5005610;28;20210;-61
2023/06/03 05:36:11;;;;;;;8.52;5.25;;;;;;;23.10;65.12;94842.22;5006880;28;20338;-60
2023/06/03 05:38:38;;;;;;;7.97;6.47;;;;;;;23.03;64.38;94842.75;5007127;28;20233;-59
2023/06/03 05:41:06;;;;;;;9.93;5.07;;;;;;;22.87;65.77;94842.41;5008122;28;20294;-60
2023/06/03 05:43:33;;;;;;;10.30;5.03;;;;;;;22.88;65.28;94838.88;5005810;28;20866;-59
2023/06/03 05:46:00;;;;;;;9.25;5.63;;;;;;;22.67;65.43;94846.69;5005572;28;20785;-60
2023/06/03 05:48:27;;;;;;;6.63;5.53;;;;;;;22.28;66.92;94848.22;5006511;28;20309;-59
2023/06/03 05:50:55;;;;;;;10.82;5.65;;;;;;;22.34;68.07;94844.31;5007148;28;20610;-59
2023/06/03 05:53:25;;;;;;;6.65;6.00;;;;;;;22.23;66.33;94831.47;5004522;28;22121;-61
2023/06/03 05:55:53;;;;;;;6.68;5.68;;;;;;;22.44;66.69;94834.84;5006929;28;20663;-59
2023/06/03 05:58:20;;;;;;;12.73;6.30;;;;;;;22.84;66.57;94834.91;5006085;28;21143;-60
2023/06/03 06:00:47;;;;;;;11.45;6.32;;;;;;;23.48;64.45;94834.53;5006804;28;20220;-60
2023/06/03 06:03:14;;;;;;;10.50;5.18;;;;;;;24.22;62.02;94834.81;5005855;28;20676;-60
2023/06/03 06:05:41;;;;;;;9.40;7.68;;;;;;;25.23;59.52;94836.66;5006824;28;20203;-59
2023/06/03 06:08:08;;;;;;;5.60;4.80;;;;;;;25.65;56.13;94844.78;5005730;28;20242;-59
2023/06/03 06:10:36;;;;;;;6.43;4.78;;;;;;;25.27;56.54;94835.38;5007003;28;20301;-58
2023/06/03 06:13:02;;;;;;;4.32;3.92;;;;;;;24.89;56.39;94835.56;5005067;28;20600;-60
2023/06/03 06:15:30;;;;;;;5.28;4.07;;;;;;;24.89;57.37;94839.00;5009223;28;20333;-61
2023/06/03 06:17:56;;;;;;;6.18;5.20;;;;;;;25.35;57.27;94838.09;5008989;28;20207;-59
2023/06/03 06:20:23;;;;;;;7.22;4.15;;;;;;;26.00;55.02;94840.50;5011512;28;20214;-61
2023/06/03 06:22:50;;;;;;;4.68;4.25;;;;;;;25.75;53.55;94840.28;5010702;28;20298;-60
2023/06/03 06:25:17;;;;;;;6.82;4.53;;;;;;;25.27;55.14;94842.38;5009627;28;20668;-61
2023/06/03 06:27:45;;;;;;;5.07;4.57;;;;;;;24.78;56.64;94841.75;5010294;28;20223;-59
2023/06/03 06:30:14;;;;;;;9.98;5.20;;;;;;;24.67;58.15;94834.97;5009762;28;20210;-61
2023/06/03 06:32:49;;;;;;;7.35;4.55;;;;;;;24.90;59.15;94832.84;5008987;28;20207;-61
2023/06/03 06:35:17;;;;;;;4.13;3.83;;;;;;;25.13;59.27;94828.09;5009444;28;20671;-61
2023/06/03 06:37:44;;;;;;;4.90;4.45;;;;;;;25.32;58.43;94840.16;5010152;28;20769;-61
2023/06/03 06:40:19;;;;;;;5.40;4.07;;;;;;;25.42;58.89;94833.13;5008974;28;20317;-60
2023/06/03 06:42:47;;;;;;;4.75;4.30;;;;;;;25.49;58.56;94830.75;5008900;28;20699;-63
2023/06/03 06:45:23;;;;;;;13.77;10.65;;;;;;;25.68;57.90;94828.88;5010501;28;20314;-59
2023/06/03 06:47:50;;;;;;;7.22;5.78;;;;;;;26.04;55.49;94839.25;5008590;28;20231;-59
2023/06/03 06:50:32;;;;;;;4.35;3.70;;;;;;;26.53;53.65;94839.63;5009190;28;20325;-61
2023/06/03 06:53:01;;;;;;;4.88;4.43;;;;;;;26.96;51.16;94836.97;5009671;28;20707;-61
2023/06/03 06:55:41;;;;;;;8.63;7.90;;;;;;;27.04;50.48;94836.97;5009620;28;20195;-60
2023/06/03 06:58:10;;;;;;;14.40;9.43;;;;;;;27.07;51.68;94838.44;5008824;28;20322;-60
2023/06/03 07:00:38;;;;;;;4.88;4.57;;;;;;;27.16;50.34;94841.91;5009326;28;20215;-61
2023/06/03 07:03:06;;;;;;;8.55;5.30;;;;;;;27.22;50.37;94849.13;5007747;28;20293;-60
2023/06/03 07:05:33;;;;;;;5.15;4.45;;;;;;;27.35;51.46;94842.47;5009668;28;20365;-61
2023/06/03 07:07:59;;;;;;;7.63;4.75;;;;;;;27.63;50.22;94844.84;5010176;28;20886;-61
2023/06/03 07:10:26;;;;;;;12.15;4.38;;;;;;;28.11;49.96;94831.00;5008323;28;20211;-61
2023/06/03 07:12:53;;;;;;;7.13;4.50;;;;;;;28.82;48.38;94838.16;5008042;28;21347;-60
2023/06/03 07:15:21;;;;;;;8.48;7.65;;;;;;;29.72;46.72;94842.00;5009488;28;20207;-61
2023/06/03 07:17:50;;;;;;;12.65;8.32;;;;;;;30.60;44.69;94840.69;5008971;28;20285;-61
2023/06/03 07:20:20;;;;;;;13.25;10.68;;;;;;;31.16;42.92;94846.34;5004662;28;20199;-60
2023/06/03 07:22:47;;;;;;;11.27;8.50;;;;;;;31.45;41.22;94848.91;5005983;28;20218;-64
2023/06/03 07:25:23;;;;;;;6.47;5.75;;;;;;;31.30;41.76;94848.13;5008989;28;20224;-62
2023/06/03 07:27:50;;;;;;;13.35;11.95;;;;;;;31.11;42.41;94850.34;5007616;28;20700;-59
2023/06/03 07:30:17;;;;;;;5.07;4.75;;;;;;;30.70;42.21;94849.09;5007711;28;20206;-60
2023/06/03 07:32:45;;;;;;;14.35;11.48;;;;;;;30.57;43.84;94851.53;5006947;28;20280;-61
2023/06/03 07:35:15;;;;;;;5.85;5.28;;;;;;;30.51;42.03;94860.09;5007830;28;20774;-61
2023/06/03 07:37:42;;;;;;;6.50;5.90;;;;;;;30.16;42.36;94854.50;5008593;28;20342;-59
2023/06/03 07:40:15;;;;;;;4.32;4.03;;;;;;;29.51;44.52;94867.97;5009164;28;20207;-61
2023/06/03 07:42:44;;;;;;;4.97;4.55;;;;;;;29.00;44.99;94864.91;5009167;28;20207;-59
2023/06/03 07:45:13;;;;;;;4.47;3.83;;;;;;;28.61;46.10;94867.44;5008834;28;20214;-61
2023/06/03 07:47:39;;;;;;;8.80;4.15;;;;;;;28.57;46.38;94867.91;5007204;28;20226;-61
2023/06/03 07:50:21;;;;;;;6.07;5.68;;;;;;;28.44;47.38;94877.09;5006777;28;21079;-62
2023/06/03 07:52:54;;;;;;;8.75;7.63;;;;;;;28.19;47.54;94872.81;5006842;28;20785;-62
2023/06/03 07:55:20;;;;;;;5.00;4.50;;;;;;;27.93;48.31;94877.38;5008694;28;20323;-61
2023/06/03 07:57:47;;;;;;;5.85;3.67;;;;;;;27.82;49.32;94885.50;5009548;28;20203;-61
2023/06/03 08:00:17;;;;;;;3.67;3.40;;;;;;;27.90;49.90;94877.69;5008218;28;20207;-61
2023/06/03 08:02:44;;;;;;;4.13;3.17;;;;;;;28.23;49.29;94884.59;5008749;28;20207;-60
2023/06/03 08:05:12;;;;;;;5.03;4.63;;;;;;;28.52;48.99;94888.50;5008263;28;20293;-60
2023/06/03 08:07:40;;;;;;;14.27;12.40;;;;;;;28.83;47.73;94892.09;5006827;28;20781;-62
2023/06/03 08:10:15;;;;;;;6.78;6.28;;;;;;;29.23;45.97;94885.09;5008566;28;21733;-60
2023/06/03 08:12:46;;;;;;;3.92;3.63;;;;;;;29.73;44.77;94889.97;5007834;28;20339;-61
2023/06/03 08:15:28;;;;;;;2.95;2.75;;;;;;;30.05;44.33;94881.13;5007170;28;20334;-61
2023/06/03 08:17:56;;;;;;;2.67;2.45;;;;;;;30.64;43.26;94878.69;5008385;28;20208;-62
2023/06/03 08:20:28;;;;;;;3.45;3.25;;;;;;;32.16;39.34;94873.56;5008050;28;20211;-61
2023/06/03 08:22:55;;;;;;;2.80;2.60;;;;;;;33.65;35.89;94878.44;5006218;28;20325;-60
2023/06/03 08:25:23;;;;;;;2.78;2.05;;;;;;;34.69;33.95;94872.75;5007685;28;20210;-61
2023/06/03 08:27:50;;;;;;;2.70;2.50;;;;;;;35.37;33.17;94878.56;5008916;28;20218;-62
2023/06/03 08:30:17;;;;;;;3.88;2.92;;;;;;;36.22;31.61;94871.22;5007059;28;20207;-62
2023/06/03 08:32:45;;;;;;;4.15;3.72;;;;;;;38.16;28.65;94871.53;5005760;28;20784;-61
2023/06/03 08:35:13;;;;;;;2.90;2.70;;;;;;;39.58;26.75;94869.56;5007140;28;20684;-60
2023/06/03 08:37:42;;;;;;;4.45;2.88;;;;;;;40.74;25.32;94860.22;5007507;28;20322;-63
2023/06/03 08:40:11;;;;;;;4.25;2.85;;;;;;;42.05;23.47;94859.53;5007783;28;20301;-62
2023/06/03 08:42:43;;;;;;;2.60;2.45;;;;;;;42.90;21.95;94874.72;5005903;28;20300;-62
2023/06/03 08:45:11;;;;;;;2.65;2.55;;;;;;;43.29;20.95;94863.75;5006288;28;20669;-63
2023/06/03 08:47:57;;;;;;;2.75;2.30;;;;;;;42.16;22.36;94866.56;5007436;28;20268;-61
2023/06/03 08:50:25;;;;;;;2.70;2.50;;;;;;;40.99;23.73;94873.09;5006414;28;20307;-64
2023/06/03 08:52:54;;;;;;;2.28;2.17;;;;;;;39.32;24.98;94867.38;5006375;28;22253;-62
2023/06/03 08:55:22;;;;;;;3.42;3.22;;;;;;;38.27;25.96;94875.25;5007868;28;20738;-61
2023/06/03 08:57:54;;;;;;;5.82;5.50;;;;;;;38.23;25.55;94864.28;5007662;28;20333;-61
2023/06/03 09:00:24;;;;;;;4.18;3.67;;;;;;;37.72;26.83;94857.63;5007026;28;20210;-62
2023/06/03 09:02:51;;;;;;;4.22;2.55;;;;;;;37.53;26.91;94861.31;5006100;28;20218;-61
2023/06/03 09:05:19;;;;;;;3.05;2.72;;;;;;;37.71;26.77;94861.31;5006937;28;20207;-62
2023/06/03 09:07:47;;;;;;;2.60;2.42;;;;;;;38.45;26.26;94861.91;5007673;28;20234;-62
2023/06/03 09:10:16;;;;;;;2.17;2.08;;;;;;;39.24;25.96;94860.56;5006671;28;20673;-61
2023/06/03 09:12:44;;;;;;;7.25;2.67;;;;;;;39.49;24.91;94856.84;5005738;28;20203;-62
2023/06/03 09:15:14;;;;;;;2.65;2.55;;;;;;;39.23;24.84;94858.16;5006076;28;20202;-62
2023/06/03 09:17:41;;;;;;;3.10;2.70;;;;;;;39.35;25.12;94865.03;5007600;28;20203;-62
2023/06/03 09:20:09;;;;;;;2.67;2.58;;;;;;;40.00;23.70;94845.34;5004705;28;20998;-62
2023/06/03 09:22:36;;;;;;;3.10;2.90;;;;;;;39.97;24.12;94843.16;5005957;28;20381;-62
2023/06/03 09:25:03;;;;;;;3.42;3.03;;;;;;;39.66;24.77;94847.88;5005779;28;20293;-61
2023/06/03 09:27:32;;;;;;;4.15;3.92;;;;;;;39.65;24.47;94845.44;5004567;28;20221;-62
2023/06/03 09:29:59;;;;;;;3.80;3.58;;;;;;;39.17;25.29;94843.13;5005320;28;20341;-62
2023/06/03 09:32:26;;;;;;;4.65;4.35;;;;;;;38.98;25.03;94839.78;5004939;28;20284;-63
2023/06/03 09:34:54;;;;;;;2.53;2.30;;;;;;;38.17;25.31;94838.66;5004573;28;20325;-64
2023/06/03 09:37:20;;;;;;;3.40;3.10;;;;;;;37.74;26.08;94836.19;5007918;28;20685;-63
2023/06/03 09:39:48;;;;;;;3.25;3.05;;;;;;;37.14;26.51;94826.25;5007028;28;20711;-64
2023/06/03 09:42:15;;;;;;;3.83;2.97;;;;;;;36.44;27.47;94833.63;5006756;28;20202;-64
2023/06/03 09:44:49;;;;;;;3.25;2.95;;;;;;;35.92;28.79;94826.06;5005608;28;20337;-63
2023/06/03 09:47:16;;;;;;;2.97;2.78;;;;;;;35.09;29.55;94832.09;5006384;28;20810;-63
2023/06/03 09:50:08;;;;;;;3.25;3.05;;;;;;;34.34;31.14;94825.47;5006418;28;20813;-62
2023/06/03 09:52:35;;;;;;;2.40;2.30;;;;;;;33.75;32.84;94820.06;5007772;28;20249;-62
2023/06/03 09:55:03;;;;;;;2.92;2.72;;;;;;;33.06;33.85;94825.47;5009814;28;20213;-63
2023/06/03 09:57:30;;;;;;;3.25;2.95;;;;;;;32.46;34.60;94819.81;5011098;28;20195;-62
2023/06/03 10:00:07;;;;;;;2.80;2.60;;;;;;;31.64;33.91;94822.06;5010428;28;20680;-62
2023/06/03 10:02:35;;;;;;;4.18;2.63;;;;;;;30.22;37.07;94832.81;5008895;28;20209;-61
2023/06/03 10:05:02;;;;;;;2.30;2.10;;;;;;;29.24;39.00;94832.59;5009162;28;20199;-64
2023/06/03 10:07:29;;;;;;;3.47;2.72;;;;;;;28.94;41.77;94831.59;5012028;28;20298;-61
2023/06/03 10:10:04;;;;;;;3.05;2.70;;;;;;;29.23;42.04;94827.50;5009354;28;20312;-63
2023/06/03 10:12:32;;;;;;;19.70;16.85;;;;;;;29.59;40.35;94825.22;5010467;28;20202;-64
2023/06/03 10:14:59;;;;;;;19.23;16.92;;;;;;;29.94;40.07;94829.09;5011752;28;20241;-62
2023/06/03 10:17:28;;;;;;;13.48;12.20;;;;;;;30.00;39.69;94823.16;5010478;28;20218;-62
2023/06/03 10:19:55;;;;;;;7.25;6.65;;;;;;;30.12;38.54;94819.16;5011364;28;20230;-64
2023/06/03 10:22:23;;;;;;;5.40;4.90;;;;;;;30.19;38.73;94822.69;5007027;28;20916;-64
2023/06/03 10:24:54;;;;;;;2.53;2.42;;;;;;;30.09;37.94;94822.13;5012142;28;20203;-65
2023/06/03 10:27:21;;;;;;;4.60;2.53;;;;;;;29.90;38.52;94817.34;5008404;28;20239;-62
2023/06/03 10:29:52;;;;;;;15.52;2.60;;;;;;;29.61;39.40;94825.88;5011257;28;20233;-66
2023/06/03 10:32:21;;;;;;;1.95;1.85;;;;;;;29.51;40.16;94833.94;5005527;28;20222;-61
2023/06/03 10:34:50;;;;;;;2.20;2.10;;;;;;;29.51;40.52;94828.72;5006604;28;20233;-65
2023/06/03 10:37:17;;;;;;;2.20;2.08;;;;;;;29.52;40.33;94825.09;5006407;28;20600;-64
2023/06/03 10:39:44;;;;;;;3.17;2.88;;;;;;;29.47;40.27;94822.19;5006702;28;20620;-64
2023/06/03 10:42:12;;;;;;;1.85;1.75;;;;;;;29.28;40.09;94807.69;4965782;28;20697;-61
2023/06/03 10:44:40;;;;;;;2.17;2.05;;;;;;;28.68;39.27;94816.09;4947122;28;20211;-65
2023/06/03 10:47:10;;;;;;;2.05;1.95;;;;;;;28.18;41.25;94813.72;4940999;28;20240;-62
2023/06/03 10:49:40;;;;;;;2.65;2.47;;;;;;;27.78;42.49;94810.09;4939115;28;20227;-63
2023/06/03 10:52:28;;;;;;;2.40;1.90;;;;;;;27.41;40.27;94809.72;4937888;28;20226;-61
2023/06/03 10:55:10;;;;;;;3.45;1.80;;;;;;;27.19;41.79;94810.31;4943401;28;20210;-62
2023/06/03 10:57:42;;;;;;;2.38;2.13;;;;;;;27.36;42.78;94804.16;4940836;28;20215;-62
2023/06/03 11:00:11;;;;;;;2.35;2.15;;;;;;;27.30;41.70;94794.34;4945193;28;20580;-63
2023/06/03 11:03:08;;;;;;;2.83;2.60;;;;;;;27.51;43.50;94804.31;4939031;28;20249;-62
2023/06/03 11:05:35;;;;;;;4.70;2.28;;;;;;;27.80;43.34;94801.28;4942745;28;20731;-64
2023/06/03 11:08:03;;;;;;;2.67;2.53;;;;;;;28.10;42.84;94803.25;4940055;28;20210;-67
2023/06/03 11:10:40;;;;;;;2.55;2.45;;;;;;;28.26;41.88;94810.28;4943683;28;20298;-64
2023/06/03 11:13:08;;;;;;;2.33;2.22;;;;;;;28.26;42.00;94800.66;4945859;28;22331;-62
2023/06/03 11:15:59;;;;;;;2.75;2.60;;;;;;;28.21;40.92;94800.31;4940547;28;20336;-63
2023/06/03 11:18:27;;;;;;;9.77;8.93;;;;;;;28.24;40.42;94802.59;4948377;28;20207;-62
2023/06/03 11:20:54;;;;;;;14.82;11.95;;;;;;;28.31;41.02;94803.59;4942700;28;20262;-64
2023/06/03 11:23:41;;;;;;;4.32;3.42;;;;;;;28.56;41.28;94806.97;4943889;28;20222;-62
2023/06/03 11:26:34;;;;;;;4.13;2.42;;;;;;;28.64;40.56;94793.88;4946548;28;20604;-64
2023/06/03 11:29:02;;;;;;;3.33;2.72;;;;;;;28.78;39.66;94803.63;4950245;28;20230;-62
2023/06/03 11:31:31;;;;;;;8.40;2.83;;;;;;;28.81;39.80;94812.16;4949393;28;20211;-62
2023/06/03 11:34:22;;;;;;;2.92;2.72;;;;;;;28.85;40.67;94800.38;4946683;28;20210;-60
2023/06/03 11:36:50;;;;;;;3.92;2.40;;;;;;;28.75;39.57;94803.16;4947744;28;20227;-63
2023/06/03 11:39:18;;;;;;;7.47;2.60;;;;;;;28.39;39.83;94798.34;4948880;28;21052;-64